createdAt,value
2022-08-16T00:03:13.230Z,74.18
2022-08-16T00:06:17.857Z,74.75
2022-08-16T00:09:21.375Z,74.83
2022-08-16T00:12:25.546Z,76.83
2022-08-16T00:15:51.739Z,76.31
2022-08-16T00:18:55.473Z,78.53
2022-08-16T00:22:03.035Z,76.82
2022-08-16T00:25:14.096Z,78.11
2022-08-16T00:28:16.854Z,77.77
2022-08-16T00:31:20.203Z,78.88
2022-08-16T00:34:43.951Z,78.70
2022-08-16T00:37:56.998Z,78.71
2022-08-16T00:41:06.066Z,78.72
2022-08-16T00:44:13.642Z,78.46
2022-08-16T00:47:19.821Z,78.71
2022-08-16T00:50:36.538Z,77.01
2022-08-16T00:53:39.913Z,77.00
2022-08-16T00:56:58.487Z,77.20
2022-08-16T01:00:05.673Z,76.88
2022-08-16T01:03:12.796Z,77.39
2022-08-16T01:06:40.340Z,77.34
2022-08-16T01:09:43.366Z,77.18
2022-08-16T01:12:47.048Z,79.28
2022-08-16T01:15:57.503Z,79.18
2022-08-16T01:19:18.700Z,79.13
2022-08-16T01:22:52.762Z,79.11
2022-08-16T01:26:00.158Z,78.56
2022-08-16T01:29:49.619Z,77.79
2022-08-16T01:33:02.457Z,77.83
2022-08-16T01:36:17.060Z,78.12
2022-08-16T01:39:20.970Z,78.44
2022-08-16T01:42:26.603Z,77.44
2022-08-16T01:45:40.434Z,78.19
2022-08-16T01:48:46.242Z,79.06
2022-08-16T01:51:55.290Z,78.74
2022-08-16T01:54:59.573Z,80.17
2022-08-16T01:58:03.162Z,78.99
2022-08-16T02:01:07.493Z,79.22
2022-08-16T02:04:12.032Z,78.43
2022-08-16T02:07:34.864Z,77.87
2022-08-16T02:10:38.746Z,77.90
2022-08-16T02:13:44.225Z,76.79
2022-08-16T02:16:48.038Z,77.14
2022-08-16T02:19:58.525Z,77.35
2022-08-16T02:23:05.757Z,76.57
2022-08-16T02:26:09.815Z,76.49
2022-08-16T02:29:20.941Z,76.37
2022-08-16T02:32:49.140Z,76.48
2022-08-16T02:35:53.749Z,77.45
2022-08-16T02:42:04.198Z,78.55
2022-08-16T02:45:07.485Z,79.10
2022-08-16T02:48:29.708Z,78.59
2022-08-16T02:51:35.763Z,77.45
2022-08-16T02:54:40.728Z,78.16
2022-08-16T02:57:54.525Z,78.46
2022-08-16T03:00:58.885Z,77.99
2022-08-16T03:04:39.979Z,77.82
2022-08-16T03:07:27.985Z,79.72
2022-08-16T03:10:33.343Z,79.63
2022-08-16T03:13:40.250Z,79.02
2022-08-16T03:16:59.051Z,79.68
2022-08-16T03:20:11.976Z,80.09
2022-08-16T03:23:15.536Z,80.51
2022-08-16T03:26:19.887Z,79.79
2022-08-16T03:29:24.908Z,79.91
2022-08-16T03:32:28.182Z,80.10
2022-08-16T03:35:35.080Z,79.65
2022-08-16T03:38:39.726Z,79.64
2022-08-16T03:41:50.210Z,78.70
2022-08-16T03:45:03.923Z,79.14
2022-08-16T03:48:15.134Z,78.62
2022-08-16T03:51:25.321Z,78.66
2022-08-16T03:54:31.810Z,79.63
2022-08-16T03:57:36.823Z,80.03
2022-08-16T04:00:41.025Z,79.81
2022-08-16T04:03:46.866Z,79.77
2022-08-16T04:06:52.722Z,79.35
2022-08-16T04:10:00.570Z,79.56
2022-08-16T04:14:00.301Z,79.99
2022-08-16T04:16:47.585Z,79.74
2022-08-16T04:19:58.217Z,79.55
2022-08-16T04:23:03.426Z,79.00
2022-08-16T04:26:07.868Z,79.73
2022-08-16T04:29:23.469Z,79.23
2022-08-16T04:32:27.933Z,80.24
2022-08-16T04:35:34.530Z,80.31
2022-08-16T04:38:37.566Z,81.57
2022-08-16T04:41:41.486Z,81.13
2022-08-16T04:44:53.759Z,82.08
2022-08-16T04:48:00.242Z,82.30
2022-08-16T04:51:11.621Z,82.03
2022-08-16T04:54:19.445Z,81.41
2022-08-16T04:57:23.763Z,81.99
2022-08-16T05:00:34.499Z,82.01
2022-08-16T05:03:41.737Z,81.45
2022-08-16T05:07:02.884Z,79.56
2022-08-16T05:10:19.833Z,80.70
2022-08-16T05:13:40.024Z,78.45
2022-08-16T05:16:46.847Z,79.13
2022-08-16T05:19:59.060Z,78.36
2022-08-16T05:23:02.200Z,79.36
2022-08-16T05:26:05.676Z,79.47
2022-08-16T05:29:23.060Z,78.45
2022-08-16T05:32:34.265Z,77.61
2022-08-16T05:35:39.820Z,77.79
2022-08-16T05:38:46.731Z,75.93
2022-08-16T05:41:51.881Z,73.29
2022-08-16T05:44:55.483Z,72.74
2022-08-16T05:48:02.031Z,70.54
2022-08-16T05:51:06.838Z,68.04
2022-08-16T05:54:14.255Z,68.17
2022-08-16T05:57:20.685Z,67.48
2022-08-16T06:00:26.083Z,68.41
2022-08-16T06:03:31.113Z,68.45
2022-08-16T06:06:37.331Z,69.40
2022-08-16T06:09:44.666Z,70.12
2022-08-16T06:12:52.640Z,70.31
2022-08-16T06:15:59.408Z,70.39
2022-08-16T06:19:04.963Z,69.76
2022-08-16T06:22:09.289Z,70.25
2022-08-16T06:25:36.081Z,70.74
2022-08-16T06:28:42.384Z,69.25
2022-08-16T06:31:49.315Z,68.68
2022-08-16T06:35:02.658Z,66.15
2022-08-16T06:38:06.190Z,65.72
2022-08-16T06:41:29.318Z,66.29
2022-08-16T06:44:43.162Z,64.75
2022-08-16T06:47:53.288Z,65.15
2022-08-16T06:50:58.418Z,63.73
2022-08-16T06:54:01.875Z,62.37
2022-08-16T06:57:16.476Z,61.26
2022-08-16T07:00:24.357Z,60.68
2022-08-16T07:03:32.495Z,58.20
2022-08-16T07:06:55.223Z,57.48
2022-08-16T07:09:57.974Z,54.94
2022-08-16T07:13:04.259Z,54.79
2022-08-16T07:16:16.817Z,53.08
2022-08-16T07:20:01.856Z,53.22
2022-08-16T07:22:52.735Z,52.10
2022-08-16T07:26:02.763Z,52.65
2022-08-16T07:29:06.770Z,50.09
2022-08-16T07:32:11.649Z,48.26
2022-08-16T07:35:15.605Z,48.55
2022-08-16T07:38:19.970Z,48.78
2022-08-16T07:41:24.388Z,48.40
2022-08-16T07:44:37.554Z,47.12
2022-08-16T07:47:54.597Z,45.96
2022-08-16T07:51:01.596Z,45.69
2022-08-16T07:54:20.935Z,44.65
2022-08-16T07:57:26.266Z,43.98
2022-08-16T08:00:29.892Z,42.60
2022-08-16T08:03:35.851Z,42.46
2022-08-16T08:06:44.293Z,42.55
2022-08-16T08:09:50.073Z,41.43
2022-08-16T08:12:54.952Z,41.22
2022-08-16T08:15:58.618Z,40.65
2022-08-16T08:19:03.032Z,40.47
2022-08-16T08:22:07.455Z,40.05
2022-08-16T08:25:12.934Z,39.48
2022-08-16T08:28:17.908Z,40.27
2022-08-16T08:31:22.309Z,38.07
2022-08-16T08:34:26.030Z,37.90
2022-08-16T08:37:53.868Z,36.51
2022-08-16T08:40:52.398Z,35.73
2022-08-16T08:43:58.270Z,35.42
2022-08-16T08:47:07.938Z,35.30
2022-08-16T08:50:32.307Z,34.98
2022-08-16T08:53:39.704Z,34.24
2022-08-16T08:56:45.786Z,33.19
2022-08-16T08:59:55.999Z,33.04
2022-08-16T09:02:59.988Z,33.54
2022-08-16T09:06:08.986Z,33.53
2022-08-16T09:09:17.084Z,34.08
2022-08-16T09:12:35.593Z,32.86
2022-08-16T09:15:40.062Z,31.89
2022-08-16T09:18:44.911Z,32.84
2022-08-16T09:21:55.998Z,31.80
2022-08-16T09:25:10.980Z,31.97
2022-08-16T09:29:13.831Z,31.69
2022-08-16T09:31:41.243Z,31.12
2022-08-16T09:34:45.512Z,31.06
2022-08-16T09:38:00.592Z,30.80
2022-08-16T09:41:06.433Z,31.32
2022-08-16T09:45:12.782Z,29.88
2022-08-16T09:47:56.785Z,30.33
2022-08-16T09:51:03.058Z,31.26
2022-08-16T09:54:09.808Z,30.39
2022-08-16T09:57:13.090Z,30.36
2022-08-16T10:00:44.145Z,29.19
2022-08-16T10:04:02.084Z,29.32
2022-08-16T10:07:15.639Z,30.83
2022-08-16T10:10:30.547Z,30.47
2022-08-16T10:13:36.494Z,28.05
2022-08-16T10:16:41.502Z,28.84
2022-08-16T10:19:50.326Z,29.28
2022-08-16T10:23:02.075Z,27.48
2022-08-16T10:27:16.384Z,27.74
2022-08-16T10:29:59.934Z,28.10
2022-08-16T10:32:56.355Z,27.88
2022-08-16T10:36:03.341Z,27.93
2022-08-16T10:39:08.662Z,27.52
2022-08-16T10:42:13.201Z,27.47
2022-08-16T10:45:18.226Z,27.40
2022-08-16T10:48:23.961Z,27.25
2022-08-16T10:51:34.410Z,25.94
2022-08-16T10:54:59.998Z,25.85
2022-08-16T10:58:19.588Z,25.71
2022-08-16T11:01:43.146Z,25.58
2022-08-16T11:08:12.252Z,25.12
2022-08-16T11:11:19.993Z,25.04
2022-08-16T11:14:26.736Z,25.19
2022-08-16T11:17:32.661Z,24.96
2022-08-16T11:20:41.034Z,24.36
2022-08-16T11:23:57.776Z,24.75
2022-08-16T11:30:28.315Z,23.99
2022-08-16T11:33:56.836Z,23.46
2022-08-16T11:37:01.493Z,22.81
2022-08-16T11:40:07.730Z,23.25
2022-08-16T11:43:16.891Z,23.24
2022-08-16T11:46:43.236Z,22.52
2022-08-16T11:49:47.086Z,23.11
2022-08-16T11:52:50.238Z,22.69
2022-08-16T11:55:54.955Z,23.04
2022-08-16T11:58:58.303Z,22.48
2022-08-16T12:02:30.774Z,22.03
2022-08-16T12:05:24.783Z,21.26
2022-08-16T12:08:30.064Z,21.93
2022-08-16T12:11:33.772Z,21.24
2022-08-16T12:14:38.769Z,21.07
2022-08-16T12:17:43.655Z,21.00
2022-08-16T12:20:46.639Z,21.38
2022-08-16T12:23:49.694Z,20.96
2022-08-16T12:26:53.907Z,21.38
2022-08-16T12:29:58.601Z,21.06
2022-08-16T12:33:03.461Z,21.08
2022-08-16T12:36:09.921Z,22.06
2022-08-16T12:39:17.906Z,21.93
2022-08-16T12:42:34.778Z,21.51
2022-08-16T12:45:44.091Z,21.72
2022-08-16T12:48:59.233Z,20.95
2022-08-16T12:52:02.727Z,22.23
2022-08-16T12:55:08.620Z,24.11
2022-08-16T12:58:13.498Z,24.04
2022-08-16T13:01:37.379Z,22.59
2022-08-16T13:04:39.993Z,22.48
2022-08-16T13:07:51.813Z,21.40
2022-08-16T13:10:56.145Z,23.05
2022-08-16T13:14:00.173Z,22.07
2022-08-16T13:17:06.901Z,21.95
2022-08-16T13:20:15.643Z,21.48
2022-08-16T13:23:18.745Z,21.88
2022-08-16T13:26:24.305Z,22.30
2022-08-16T13:29:40.212Z,22.13
2022-08-16T13:32:48.108Z,22.61
2022-08-16T13:35:55.870Z,22.14
2022-08-16T13:39:00.574Z,22.21
2022-08-16T13:42:04.577Z,21.29
2022-08-16T13:45:15.619Z,21.27
2022-08-16T13:48:24.485Z,20.97
2022-08-16T13:51:30.588Z,21.63
2022-08-16T13:54:34.005Z,21.56
2022-08-16T13:57:53.037Z,21.79
2022-08-16T14:00:57.247Z,21.97
2022-08-16T14:04:01.567Z,21.97
2022-08-16T14:07:06.643Z,22.23
2022-08-16T14:10:15.264Z,22.63
2022-08-16T14:13:21.032Z,22.81
2022-08-16T14:16:33.536Z,23.02
2022-08-16T14:19:37.223Z,23.66
2022-08-16T14:22:52.544Z,24.08
2022-08-16T14:25:57.881Z,24.83
2022-08-16T14:29:03.589Z,24.52
2022-08-16T14:32:09.121Z,24.89
2022-08-16T14:35:17.211Z,24.51
2022-08-16T14:38:23.459Z,25.11
2022-08-16T14:41:29.307Z,25.54
2022-08-16T14:44:32.915Z,26.41
2022-08-16T14:47:38.697Z,26.24
2022-08-16T14:50:41.561Z,26.78
2022-08-16T14:53:51.989Z,26.91
2022-08-16T14:56:55.721Z,27.08
2022-08-16T15:00:05.955Z,27.35
2022-08-16T15:03:10.884Z,27.24
2022-08-16T15:06:14.357Z,27.63
2022-08-16T15:09:17.943Z,27.57
2022-08-16T15:12:26.975Z,27.91
2022-08-16T15:15:35.341Z,28.01
2022-08-16T15:18:39.373Z,28.34
2022-08-16T15:21:42.582Z,29.29
2022-08-16T15:24:45.549Z,29.91
2022-08-16T15:27:54.786Z,29.94
2022-08-16T15:31:02.975Z,30.13
2022-08-16T15:34:13.051Z,29.88
2022-08-16T15:37:23.161Z,29.10
2022-08-16T15:40:32.021Z,28.91
2022-08-16T15:43:40.419Z,28.40
2022-08-16T15:46:55.454Z,28.15
2022-08-16T15:50:02.588Z,28.18
2022-08-16T15:53:17.199Z,28.45
2022-08-16T15:56:21.713Z,28.79
2022-08-16T15:59:30.686Z,28.88
2022-08-16T16:03:19.262Z,29.09
2022-08-16T16:06:27.933Z,29.32
2022-08-16T16:09:36.996Z,29.54
2022-08-16T16:12:50.365Z,29.68
2022-08-16T16:15:58.266Z,29.84
2022-08-16T16:19:01.300Z,29.98
2022-08-16T16:22:07.852Z,30.27
2022-08-16T16:25:12.078Z,30.41
2022-08-16T16:28:46.375Z,30.89
2022-08-16T16:31:43.958Z,30.78
2022-08-16T16:35:04.474Z,30.60
2022-08-16T16:38:09.112Z,30.94
2022-08-16T16:41:12.065Z,31.09
2022-08-16T16:44:22.564Z,31.00
2022-08-16T16:47:40.719Z,30.93
2022-08-16T16:50:45.605Z,31.12
2022-08-16T16:53:56.120Z,31.60
2022-08-16T16:56:59.438Z,31.43
2022-08-16T17:00:30.308Z,31.41
2022-08-16T17:03:31.465Z,31.69
2022-08-16T17:06:36.886Z,32.11
2022-08-16T17:09:41.625Z,32.01
2022-08-16T17:12:46.887Z,32.35
2022-08-16T17:15:52.729Z,32.57
2022-08-16T17:19:15.024Z,32.75
2022-08-16T17:22:21.570Z,33.01
2022-08-16T17:25:36.233Z,33.38
2022-08-16T17:28:59.057Z,33.95
2022-08-16T17:32:33.636Z,34.26
2022-08-16T17:35:55.008Z,34.44
2022-08-16T17:39:00.215Z,34.65
2022-08-16T17:42:08.294Z,35.15
2022-08-16T17:45:11.467Z,35.36
2022-08-16T17:48:14.861Z,35.80
2022-08-16T17:51:17.912Z,35.91
2022-08-16T17:54:30.749Z,36.48
2022-08-16T17:57:35.277Z,36.82
2022-08-16T18:00:42.033Z,36.87
2022-08-16T18:04:06.805Z,37.41
2022-08-16T18:07:08.737Z,37.40
2022-08-16T18:10:23.691Z,37.36
2022-08-16T18:13:36.899Z,37.79
2022-08-16T18:16:41.527Z,37.92
2022-08-16T18:19:44.715Z,38.06
2022-08-16T18:22:48.685Z,38.08
2022-08-16T18:25:57.550Z,37.72
2022-08-16T18:29:01.957Z,38.85
2022-08-16T18:32:05.734Z,38.80
2022-08-16T18:35:09.447Z,39.92
2022-08-16T18:38:13.221Z,40.76
2022-08-16T18:41:17.336Z,40.73
2022-08-16T18:44:24.835Z,40.46
2022-08-16T18:47:31.174Z,41.03
2022-08-16T18:51:04.844Z,41.08
2022-08-16T18:53:57.851Z,42.15
2022-08-16T18:57:03.456Z,42.09
2022-08-16T19:00:13.150Z,42.03
2022-08-16T19:03:22.379Z,42.11
2022-08-16T19:06:25.488Z,42.63
2022-08-16T19:09:28.565Z,43.89
2022-08-16T19:12:38.620Z,44.57
2022-08-16T19:15:46.717Z,44.64
2022-08-16T19:18:50.267Z,45.00
2022-08-16T19:21:53.900Z,44.75
2022-08-16T19:24:57.497Z,44.87
2022-08-16T19:28:00.448Z,46.43
2022-08-16T19:31:05.974Z,46.40
2022-08-16T19:34:08.977Z,45.88
2022-08-16T19:37:12.335Z,45.77
2022-08-16T19:40:37.119Z,45.78
2022-08-16T19:43:39.425Z,46.18
2022-08-16T19:46:47.615Z,47.04
2022-08-16T19:49:51.567Z,47.01
2022-08-16T19:53:12.931Z,47.02
2022-08-16T19:56:26.370Z,48.05
2022-08-16T19:59:39.205Z,48.49
2022-08-16T20:02:51.285Z,48.61
2022-08-16T20:05:54.844Z,49.97
2022-08-16T20:08:57.941Z,50.46
2022-08-16T20:12:11.778Z,50.11
2022-08-16T20:15:16.708Z,50.82
2022-08-16T20:18:25.127Z,50.58
2022-08-16T20:21:28.913Z,51.22
2022-08-16T20:24:35.302Z,51.67
2022-08-16T20:27:40.362Z,51.23
2022-08-16T20:30:43.658Z,51.13
2022-08-16T20:33:46.299Z,52.03
2022-08-16T20:36:50.271Z,52.35
2022-08-16T20:40:27.231Z,52.23
2022-08-16T20:43:19.259Z,52.65
2022-08-16T20:46:22.253Z,52.93
2022-08-16T20:49:25.362Z,53.69
2022-08-16T20:52:28.394Z,55.23
2022-08-16T20:55:35.484Z,55.85
2022-08-16T20:58:39.986Z,55.62
2022-08-16T21:01:46.784Z,56.35
2022-08-16T21:04:54.279Z,57.06
2022-08-16T21:08:50.844Z,56.97
2022-08-16T21:11:28.621Z,57.49
2022-08-16T21:14:34.555Z,57.33
2022-08-16T21:17:37.453Z,57.24
2022-08-16T21:20:44.174Z,57.33
2022-08-16T21:23:47.260Z,58.05
2022-08-16T21:26:55.998Z,57.39
2022-08-16T21:29:59.291Z,57.83
2022-08-16T21:33:12.243Z,58.17
2022-08-16T21:36:15.225Z,58.32
2022-08-16T21:39:38.653Z,58.72
2022-08-16T21:42:44.369Z,58.48
2022-08-16T21:45:48.402Z,59.32
2022-08-16T21:49:05.889Z,59.45
2022-08-16T21:52:26.718Z,60.39
2022-08-16T21:55:29.651Z,59.33
2022-08-16T21:58:37.407Z,59.10
2022-08-16T22:01:42.596Z,58.53
2022-08-16T22:04:46.484Z,57.84
2022-08-16T22:07:50.032Z,58.00
2022-08-16T22:11:07.695Z,58.23
2022-08-16T22:14:13.339Z,58.08
2022-08-16T22:17:16.866Z,58.18
2022-08-16T22:20:21.320Z,57.75
2022-08-16T22:23:26.279Z,58.10
2022-08-16T22:26:32.020Z,57.93
2022-08-16T22:29:36.638Z,58.43
2022-08-16T22:32:44.345Z,58.19
2022-08-16T22:35:49.689Z,58.27
2022-08-16T22:38:55.715Z,58.83
2022-08-16T22:42:07.729Z,58.95
2022-08-16T22:45:11.548Z,59.49
2022-08-16T22:48:16.771Z,59.45
2022-08-16T22:51:20.901Z,59.86
2022-08-16T22:54:39.260Z,60.58
2022-08-16T22:57:48.936Z,60.50
2022-08-16T23:00:52.025Z,60.64
2022-08-16T23:03:55.823Z,60.54
2022-08-16T23:06:58.974Z,61.76
2022-08-16T23:10:02.108Z,62.50
2022-08-16T23:13:06.860Z,62.66
2022-08-16T23:16:10.788Z,62.58
2022-08-16T23:19:17.305Z,62.11
2022-08-16T23:22:24.547Z,61.15
2022-08-16T23:25:30.701Z,60.39
2022-08-16T23:28:34.621Z,61.06
2022-08-16T23:31:37.933Z,60.92
2022-08-16T23:34:41.386Z,60.07
2022-08-16T23:37:46.866Z,60.86
2022-08-16T23:40:50.281Z,61.12
2022-08-16T23:43:53.368Z,61.69
2022-08-16T23:46:56.090Z,62.20
2022-08-16T23:50:03.582Z,62.61
2022-08-16T23:53:14.324Z,63.17
2022-08-16T23:56:20.298Z,63.30
2022-08-16T23:59:23.015Z,62.53
